sensor_id;sensor_type;location;lat;lon;timestamp;pressure;altitude;pressure_sealevel;temperature;humidity
46408;BME280;32110;45.724;21.276;2022-08-04T00:01:06;100473.09;;;21.50;nan
46408;BME280;32110;45.724;21.276;2022-08-04T00:03:41;100476.56;;;21.51;nan
46408;BME280;32110;45.724;21.276;2022-08-04T00:11:15;100477.13;;;21.48;nan
46408;BME280;32110;45.724;21.276;2022-08-04T00:13:52;100465.44;;;21.43;nan
46408;BME280;32110;45.724;21.276;2022-08-04T00:16:21;100472.97;;;21.41;nan
46408;BME280;32110;45.724;21.276;2022-08-04T00:18:55;100461.16;;;21.42;nan
46408;BME280;32110;45.724;21.276;2022-08-04T00:21:24;100486.38;;;21.41;nan
46408;BME280;32110;45.724;21.276;2022-08-04T00:23:50;100459.31;;;21.38;nan
46408;BME280;32110;45.724;21.276;2022-08-04T00:26:16;100465.38;;;21.30;nan
46408;BME280;32110;45.724;21.276;2022-08-04T00:28:44;100464.09;;;21.27;nan
46408;BME280;32110;45.724;21.276;2022-08-04T00:31:10;100472.59;;;21.15;nan
46408;BME280;32110;45.724;21.276;2022-08-04T00:33:39;100536.06;;;21.15;nan
46408;BME280;32110;45.724;21.276;2022-08-04T00:36:04;100468.91;;;21.11;nan
46408;BME280;32110;45.724;21.276;2022-08-04T00:38:31;100486.66;;;21.07;nan
46408;BME280;32110;45.724;21.276;2022-08-04T00:44:12;100489.78;;;20.95;nan
46408;BME280;32110;45.724;21.276;2022-08-04T00:49:45;100474.47;;;20.82;nan
46408;BME280;32110;45.724;21.276;2022-08-04T01:00:23;100459.53;;;20.62;nan
46408;BME280;32110;45.724;21.276;2022-08-04T01:03:16;100494.00;;;20.64;nan
46408;BME280;32110;45.724;21.276;2022-08-04T01:10:56;100484.66;;;20.61;nan
46408;BME280;32110;45.724;21.276;2022-08-04T01:16:09;100484.47;;;20.57;nan
46408;BME280;32110;45.724;21.276;2022-08-04T01:27:10;100488.91;;;20.43;nan
46408;BME280;32110;45.724;21.276;2022-08-04T01:29:50;100469.44;;;20.37;nan
46408;BME280;32110;45.724;21.276;2022-08-04T01:32:24;100477.25;;;20.34;nan
46408;BME280;32110;45.724;21.276;2022-08-04T01:34:55;100494.69;;;20.31;nan
46408;BME280;32110;45.724;21.276;2022-08-04T01:40:25;100480.63;;;20.21;nan
46408;BME280;32110;45.724;21.276;2022-08-04T01:42:52;100470.31;;;20.14;nan
46408;BME280;32110;45.724;21.276;2022-08-04T01:45:18;100470.31;;;20.14;nan
46408;BME280;32110;45.724;21.276;2022-08-04T01:47:51;100498.34;;;20.16;nan
46408;BME280;32110;45.724;21.276;2022-08-04T01:50:17;100507.00;;;20.08;nan
46408;BME280;32110;45.724;21.276;2022-08-04T01:52:44;100484.25;;;20.11;nan
46408;BME280;32110;45.724;21.276;2022-08-04T01:55:12;100489.09;;;20.09;nan
46408;BME280;32110;45.724;21.276;2022-08-04T02:00:07;100490.16;;;20.08;nan
46408;BME280;32110;45.724;21.276;2022-08-04T02:02:33;100429.84;;;20.02;nan
46408;BME280;32110;45.724;21.276;2022-08-04T02:04:59;100478.00;;;19.96;nan
46408;BME280;32110;45.724;21.276;2022-08-04T02:07:49;100468.13;;;19.97;nan
46408;BME280;32110;45.724;21.276;2022-08-04T02:10:30;100488.47;;;19.93;nan
46408;BME280;32110;45.724;21.276;2022-08-04T02:16:04;100489.78;;;19.71;nan
46408;BME280;32110;45.724;21.276;2022-08-04T02:18:48;100504.22;;;19.65;nan
46408;BME280;32110;45.724;21.276;2022-08-04T02:21:19;100475.19;;;19.59;nan
46408;BME280;32110;45.724;21.276;2022-08-04T02:23:53;100492.63;;;19.51;nan
46408;BME280;32110;45.724;21.276;2022-08-04T02:28:50;100488.69;;;19.43;nan
46408;BME280;32110;45.724;21.276;2022-08-04T02:34:06;100487.66;;;19.39;nan
46408;BME280;32110;45.724;21.276;2022-08-04T02:36:38;100471.41;;;19.36;nan
46408;BME280;32110;45.724;21.276;2022-08-04T02:41:30;100528.06;;;19.27;nan
46408;BME280;32110;45.724;21.276;2022-08-04T02:46:27;100482.97;;;19.26;nan
46408;BME280;32110;45.724;21.276;2022-08-04T02:48:53;100496.38;;;19.21;nan
46408;BME280;32110;45.724;21.276;2022-08-04T02:51:32;100487.06;;;19.18;nan
46408;BME280;32110;45.724;21.276;2022-08-04T02:53:58;100480.09;;;19.17;nan
46408;BME280;32110;45.724;21.276;2022-08-04T02:56:27;100477.75;;;19.16;nan
46408;BME280;32110;45.724;21.276;2022-08-04T02:59:04;100488.41;;;19.16;nan
46408;BME280;32110;45.724;21.276;2022-08-04T03:01:31;100484.19;;;19.09;nan
46408;BME280;32110;45.724;21.276;2022-08-04T03:12:14;100489.88;;;18.98;nan
46408;BME280;32110;45.724;21.276;2022-08-04T03:23:06;100480.13;;;18.83;nan
46408;BME280;32110;45.724;21.276;2022-08-04T03:26:16;100487.88;;;18.74;nan
46408;BME280;32110;45.724;21.276;2022-08-04T03:41:04;100501.66;;;18.47;nan
46408;BME280;32110;45.724;21.276;2022-08-04T03:55:23;100509.09;;;18.50;nan
46408;BME280;32110;45.724;21.276;2022-08-04T03:58:31;100509.34;;;18.54;nan
46408;BME280;32110;45.724;21.276;2022-08-04T04:12:13;100499.41;;;18.64;nan
46408;BME280;32110;45.724;21.276;2022-08-04T04:14:46;100458.03;;;18.67;nan
46408;BME280;32110;45.724;21.276;2022-08-04T04:25:34;100519.03;;;18.84;nan
46408;BME280;32110;45.724;21.276;2022-08-04T04:30:44;100506.44;;;18.95;nan
46408;BME280;32110;45.724;21.276;2022-08-04T04:36:18;100537.34;;;19.06;nan
46408;BME280;32110;45.724;21.276;2022-08-04T04:39:00;100520.72;;;19.14;nan
46408;BME280;32110;45.724;21.276;2022-08-04T04:44:21;100520.06;;;19.27;nan
46408;BME280;32110;45.724;21.276;2022-08-04T04:47:04;100533.66;;;19.31;nan
46408;BME280;32110;45.724;21.276;2022-08-04T04:52:27;100495.66;;;19.39;nan
46408;BME280;32110;45.724;21.276;2022-08-04T05:00:08;100533.66;;;19.60;nan
46408;BME280;32110;45.724;21.276;2022-08-04T05:10:50;100562.97;;;20.00;nan
46408;BME280;32110;45.724;21.276;2022-08-04T05:18:57;100498.88;;;20.18;nan
46408;BME280;32110;45.724;21.276;2022-08-04T05:21:42;100557.50;;;20.34;nan
46408;BME280;32110;45.724;21.276;2022-08-04T05:24:11;100551.81;;;20.40;nan
46408;BME280;32110;45.724;21.276;2022-08-04T05:26:44;100540.81;;;20.42;nan
46408;BME280;32110;45.724;21.276;2022-08-04T05:31:44;100563.34;;;20.60;nan
46408;BME280;32110;45.724;21.276;2022-08-04T05:34:19;100604.44;;;20.69;nan
46408;BME280;32110;45.724;21.276;2022-08-04T05:36:48;100550.28;;;20.77;nan
46408;BME280;32110;45.724;21.276;2022-08-04T05:39:18;100545.59;;;20.88;nan
46408;BME280;32110;45.724;21.276;2022-08-04T05:41:47;100561.75;;;20.97;nan
46408;BME280;32110;45.724;21.276;2022-08-04T05:44:18;100573.50;;;21.01;nan
46408;BME280;32110;45.724;21.276;2022-08-04T05:46:47;100566.09;;;21.12;nan
46408;BME280;32110;45.724;21.276;2022-08-04T05:49:13;100559.28;;;21.19;nan
46408;BME280;32110;45.724;21.276;2022-08-04T05:51:41;100613.50;;;21.30;nan
46408;BME280;32110;45.724;21.276;2022-08-04T05:54:09;100561.66;;;21.40;nan
46408;BME280;32110;45.724;21.276;2022-08-04T05:59:02;100581.56;;;21.66;nan
46408;BME280;32110;45.724;21.276;2022-08-04T06:01:28;100572.88;;;21.75;nan
46408;BME280;32110;45.724;21.276;2022-08-04T06:03:56;100553.91;;;21.85;nan
46408;BME280;32110;45.724;21.276;2022-08-04T06:06:23;100569.50;;;21.97;nan
46408;BME280;32110;45.724;21.276;2022-08-04T06:08:50;100587.28;;;22.06;nan
46408;BME280;32110;45.724;21.276;2022-08-04T06:11:17;100536.06;;;22.22;nan
46408;BME280;32110;45.724;21.276;2022-08-04T06:13:49;100582.66;;;22.40;nan
46408;BME280;32110;45.724;21.276;2022-08-04T06:16:18;100570.75;;;22.46;nan
46408;BME280;32110;45.724;21.276;2022-08-04T06:18:48;100580.94;;;22.58;nan
46408;BME280;32110;45.724;21.276;2022-08-04T06:21:18;100578.34;;;22.66;nan
46408;BME280;32110;45.724;21.276;2022-08-04T06:23:45;100585.59;;;22.80;nan
46408;BME280;32110;45.724;21.276;2022-08-04T06:26:11;100635.88;;;22.88;nan
46408;BME280;32110;45.724;21.276;2022-08-04T06:28:45;100590.88;;;22.93;nan
46408;BME280;32110;45.724;21.276;2022-08-04T06:31:13;100583.63;;;23.08;nan
46408;BME280;32110;45.724;21.276;2022-08-04T06:33:40;100583.44;;;23.27;nan
46408;BME280;32110;45.724;21.276;2022-08-04T06:36:06;100572.94;;;23.39;nan
46408;BME280;32110;45.724;21.276;2022-08-04T06:38:32;100570.22;;;23.62;nan
46408;BME280;32110;45.724;21.276;2022-08-04T06:41:00;100584.06;;;23.77;nan
46408;BME280;32110;45.724;21.276;2022-08-04T06:43:28;100582.72;;;23.89;nan
46408;BME280;32110;45.724;21.276;2022-08-04T06:45:55;100564.22;;;23.87;nan
46408;BME280;32110;45.724;21.276;2022-08-04T06:48:23;100635.31;;;24.04;nan
46408;BME280;32110;45.724;21.276;2022-08-04T06:50:49;100589.00;;;24.15;nan
46408;BME280;32110;45.724;21.276;2022-08-04T06:53:16;100576.53;;;24.28;nan
46408;BME280;32110;45.724;21.276;2022-08-04T06:55:44;100653.19;;;24.39;nan
46408;BME280;32110;45.724;21.276;2022-08-04T06:58:11;100573.28;;;24.57;nan
46408;BME280;32110;45.724;21.276;2022-08-04T07:00:38;100622.09;;;24.65;nan
46408;BME280;32110;45.724;21.276;2022-08-04T07:03:05;100585.19;;;24.82;nan
46408;BME280;32110;45.724;21.276;2022-08-04T07:05:32;100572.53;;;24.92;nan
46408;BME280;32110;45.724;21.276;2022-08-04T07:07:58;100573.78;;;25.03;nan
46408;BME280;32110;45.724;21.276;2022-08-04T07:10:28;100584.41;;;25.17;nan
46408;BME280;32110;45.724;21.276;2022-08-04T07:12:56;100598.69;;;25.26;nan
46408;BME280;32110;45.724;21.276;2022-08-04T07:15:23;100632.75;;;25.31;nan
46408;BME280;32110;45.724;21.276;2022-08-04T07:17:50;100584.22;;;25.48;nan
46408;BME280;32110;45.724;21.276;2022-08-04T07:20:15;100581.19;;;25.58;nan
46408;BME280;32110;45.724;21.276;2022-08-04T07:22:44;100574.63;;;25.77;nan
46408;BME280;32110;45.724;21.276;2022-08-04T07:25:11;100575.88;;;25.88;nan
46408;BME280;32110;45.724;21.276;2022-08-04T07:27:39;100572.28;;;26.05;nan
46408;BME280;32110;45.724;21.276;2022-08-04T07:30:04;100576.91;;;26.04;nan
46408;BME280;32110;45.724;21.276;2022-08-04T07:32:31;100589.25;;;26.14;nan
46408;BME280;32110;45.724;21.276;2022-08-04T07:34:57;100521.97;;;26.09;nan
46408;BME280;32110;45.724;21.276;2022-08-04T07:37:23;100595.19;;;26.28;nan
46408;BME280;32110;45.724;21.276;2022-08-04T07:39:49;100569.53;;;26.43;nan
46408;BME280;32110;45.724;21.276;2022-08-04T07:42:17;100571.81;;;26.62;nan
46408;BME280;32110;45.724;21.276;2022-08-04T07:44:44;100572.91;;;26.70;nan
46408;BME280;32110;45.724;21.276;2022-08-04T07:47:09;100556.81;;;26.73;nan
46408;BME280;32110;45.724;21.276;2022-08-04T07:49:35;100564.91;;;26.94;nan
46408;BME280;32110;45.724;21.276;2022-08-04T07:52:02;100578.53;;;26.98;nan
46408;BME280;32110;45.724;21.276;2022-08-04T07:54:28;100576.97;;;26.97;nan
46408;BME280;32110;45.724;21.276;2022-08-04T07:56:54;100566.41;;;27.04;nan
46408;BME280;32110;45.724;21.276;2022-08-04T07:59:20;100592.25;;;27.14;nan
46408;BME280;32110;45.724;21.276;2022-08-04T08:01:46;100590.97;;;27.20;nan
46408;BME280;32110;45.724;21.276;2022-08-04T08:06:38;100586.69;;;27.31;nan
46408;BME280;32110;45.724;21.276;2022-08-04T08:09:18;100585.84;;;27.40;nan
46408;BME280;32110;45.724;21.276;2022-08-04T08:11:49;100573.34;;;27.47;nan
46408;BME280;32110;45.724;21.276;2022-08-04T08:14:16;100629.84;;;27.61;nan
46408;BME280;32110;45.724;21.276;2022-08-04T08:16:42;100594.22;;;27.71;nan
46408;BME280;32110;45.724;21.276;2022-08-04T08:19:10;100576.75;;;27.81;nan
46408;BME280;32110;45.724;21.276;2022-08-04T08:21:36;100589.00;;;27.87;nan
46408;BME280;32110;45.724;21.276;2022-08-04T08:24:04;100566.09;;;27.97;nan
46408;BME280;32110;45.724;21.276;2022-08-04T08:26:30;100596.31;;;27.99;nan
46408;BME280;32110;45.724;21.276;2022-08-04T08:28:56;100580.28;;;28.06;nan
46408;BME280;32110;45.724;21.276;2022-08-04T08:31:21;100588.63;;;28.13;nan
46408;BME280;32110;45.724;21.276;2022-08-04T08:33:49;100606.47;;;28.27;nan
46408;BME280;32110;45.724;21.276;2022-08-04T08:36:22;100584.69;;;28.35;nan
46408;BME280;32110;45.724;21.276;2022-08-04T08:39:20;100589.88;;;28.40;nan
46408;BME280;32110;45.724;21.276;2022-08-04T09:12:21;100589.59;;;29.39;nan
46408;BME280;32110;45.724;21.276;2022-08-04T09:14:55;100587.50;;;29.48;nan
46408;BME280;32110;45.724;21.276;2022-08-04T09:17:39;100586.91;;;29.71;nan
46408;BME280;32110;45.724;21.276;2022-08-04T09:20:12;100589.09;;;29.81;nan
46408;BME280;32110;45.724;21.276;2022-08-04T09:22:49;100582.28;;;29.87;nan
46408;BME280;32110;45.724;21.276;2022-08-04T09:25:24;100582.72;;;29.89;nan
46408;BME280;32110;45.724;21.276;2022-08-04T09:27:52;100592.53;;;29.94;nan
46408;BME280;32110;45.724;21.276;2022-08-04T09:30:26;100588.50;;;30.03;nan
46408;BME280;32110;45.724;21.276;2022-08-04T09:33:14;100594.44;;;30.09;nan
46408;BME280;32110;45.724;21.276;2022-08-04T09:35:48;100560.00;;;30.13;nan
46408;BME280;32110;45.724;21.276;2022-08-04T09:38:34;100543.09;;;30.20;nan
46408;BME280;32110;45.724;21.276;2022-08-04T09:44:14;100562.53;;;30.22;nan
46408;BME280;32110;45.724;21.276;2022-08-04T09:46:38;100541.59;;;30.22;nan
46408;BME280;32110;45.724;21.276;2022-08-04T09:49:22;100548.69;;;30.27;nan
46408;BME280;32110;45.724;21.276;2022-08-04T09:54:26;100548.41;;;30.32;nan
46408;BME280;32110;45.724;21.276;2022-08-04T10:00:07;100601.47;;;30.45;nan
46408;BME280;32110;45.724;21.276;2022-08-04T10:02:39;100523.63;;;30.53;nan
46408;BME280;32110;45.724;21.276;2022-08-04T10:05:13;100580.84;;;30.60;nan
46408;BME280;32110;45.724;21.276;2022-08-04T10:10:39;100549.75;;;30.77;nan
46408;BME280;32110;45.724;21.276;2022-08-04T10:18:49;100585.56;;;30.83;nan
46408;BME280;32110;45.724;21.276;2022-08-04T10:27:15;100530.97;;;30.72;nan
46408;BME280;32110;45.724;21.276;2022-08-04T10:29:47;100534.78;;;30.67;nan
46408;BME280;32110;45.724;21.276;2022-08-04T10:32:18;100540.78;;;30.77;nan
46408;BME280;32110;45.724;21.276;2022-08-04T10:35:10;100553.97;;;30.94;nan
46408;BME280;32110;45.724;21.276;2022-08-04T10:40:54;100541.63;;;31.00;nan
46408;BME280;32110;45.724;21.276;2022-08-04T10:53:46;100514.50;;;31.27;nan
46408;BME280;32110;45.724;21.276;2022-08-04T10:58:59;100517.59;;;31.45;nan
46408;BME280;32110;45.724;21.276;2022-08-04T11:01:32;100575.16;;;31.47;nan
46408;BME280;32110;45.724;21.276;2022-08-04T11:04:03;100521.41;;;31.40;nan
46408;BME280;32110;45.724;21.276;2022-08-04T11:06:30;100520.16;;;31.37;nan
46408;BME280;32110;45.724;21.276;2022-08-04T11:08:57;100510.34;;;31.33;nan
46408;BME280;32110;45.724;21.276;2022-08-04T11:11:36;100550.53;;;31.40;nan
46408;BME280;32110;45.724;21.276;2022-08-04T11:14:10;100517.75;;;31.55;nan
46408;BME280;32110;45.724;21.276;2022-08-04T11:17:00;100509.22;;;31.57;nan
46408;BME280;32110;45.724;21.276;2022-08-04T11:19:33;100485.25;;;31.66;nan
46408;BME280;32110;45.724;21.276;2022-08-04T11:22:13;100522.75;;;31.76;nan
46408;BME280;32110;45.724;21.276;2022-08-04T11:27:17;100488.94;;;31.77;nan
46408;BME280;32110;45.724;21.276;2022-08-04T11:29:55;100518.88;;;31.77;nan
46408;BME280;32110;45.724;21.276;2022-08-04T11:32:35;100519.97;;;31.73;nan
46408;BME280;32110;45.724;21.276;2022-08-04T11:35:05;100495.25;;;31.58;nan
46408;BME280;32110;45.724;21.276;2022-08-04T11:40:14;100500.31;;;31.60;nan
46408;BME280;32110;45.724;21.276;2022-08-04T11:42:51;100497.56;;;31.56;nan
46408;BME280;32110;45.724;21.276;2022-08-04T11:45:33;100483.97;;;31.60;nan
46408;BME280;32110;45.724;21.276;2022-08-04T11:48:26;100498.38;;;31.61;nan
46408;BME280;32110;45.724;21.276;2022-08-04T11:50:53;100487.81;;;31.55;nan
46408;BME280;32110;45.724;21.276;2022-08-04T11:53:23;100522.59;;;31.66;nan
46408;BME280;32110;45.724;21.276;2022-08-04T11:55:52;100468.34;;;31.80;nan
46408;BME280;32110;45.724;21.276;2022-08-04T11:58:22;100475.44;;;31.88;nan
46408;BME280;32110;45.724;21.276;2022-08-04T12:03:56;100476.22;;;32.15;nan
46408;BME280;32110;45.724;21.276;2022-08-04T12:06:37;100486.84;;;32.24;nan
46408;BME280;32110;45.724;21.276;2022-08-04T12:09:27;100460.34;;;32.21;nan
46408;BME280;32110;45.724;21.276;2022-08-04T12:14:45;100488.66;;;32.13;nan
46408;BME280;32110;45.724;21.276;2022-08-04T12:17:15;100486.25;;;32.08;nan
46408;BME280;32110;45.724;21.276;2022-08-04T12:19:54;100473.28;;;31.97;nan
46408;BME280;32110;45.724;21.276;2022-08-04T12:22:25;100458.50;;;31.98;nan
46408;BME280;32110;45.724;21.276;2022-08-04T12:27:36;100486.66;;;32.10;nan
46408;BME280;32110;45.724;21.276;2022-08-04T12:30:04;100516.38;;;32.18;nan
46408;BME280;32110;45.724;21.276;2022-08-04T12:32:52;100459.09;;;32.15;nan
46408;BME280;32110;45.724;21.276;2022-08-04T12:35:22;100450.41;;;32.06;nan
46408;BME280;32110;45.724;21.276;2022-08-04T12:38:11;100450.63;;;31.93;nan
46408;BME280;32110;45.724;21.276;2022-08-04T12:40:45;100465.88;;;31.98;nan
46408;BME280;32110;45.724;21.276;2022-08-04T12:46:02;100471.69;;;31.96;nan
46408;BME280;32110;45.724;21.276;2022-08-04T12:48:29;100428.78;;;31.90;nan
46408;BME280;32110;45.724;21.276;2022-08-04T12:50:58;100454.00;;;31.83;nan
46408;BME280;32110;45.724;21.276;2022-08-04T12:53:32;100397.53;;;31.80;nan
46408;BME280;32110;45.724;21.276;2022-08-04T12:56:00;100446.66;;;31.87;nan
46408;BME280;32110;45.724;21.276;2022-08-04T12:58:28;100436.69;;;31.98;nan
46408;BME280;32110;45.724;21.276;2022-08-04T13:00:59;100450.00;;;32.04;nan
46408;BME280;32110;45.724;21.276;2022-08-04T13:03:36;100486.66;;;32.10;nan
46408;BME280;32110;45.724;21.276;2022-08-04T13:06:03;100447.34;;;32.11;nan
46408;BME280;32110;45.724;21.276;2022-08-04T13:08:35;100455.72;;;32.25;nan
46408;BME280;32110;45.724;21.276;2022-08-04T13:11:02;100454.22;;;32.31;nan
46408;BME280;32110;45.724;21.276;2022-08-04T13:13:34;100431.31;;;32.36;nan
46408;BME280;32110;45.724;21.276;2022-08-04T13:18:45;100443.63;;;32.56;nan
46408;BME280;32110;45.724;21.276;2022-08-04T13:21:14;100444.56;;;32.71;nan
46408;BME280;32110;45.724;21.276;2022-08-04T13:23:41;100436.81;;;32.77;nan
46408;BME280;32110;45.724;21.276;2022-08-04T13:26:14;100427.59;;;32.89;nan
46408;BME280;32110;45.724;21.276;2022-08-04T13:28:46;100429.25;;;33.00;nan
46408;BME280;32110;45.724;21.276;2022-08-04T13:31:15;100412.47;;;32.98;nan
46408;BME280;32110;45.724;21.276;2022-08-04T13:33:44;100413.66;;;32.97;nan
46408;BME280;32110;45.724;21.276;2022-08-04T13:36:11;100450.22;;;32.93;nan
46408;BME280;32110;45.724;21.276;2022-08-04T13:38:39;100418.22;;;32.90;nan
46408;BME280;32110;45.724;21.276;2022-08-04T13:41:09;100422.97;;;32.96;nan
46408;BME280;32110;45.724;21.276;2022-08-04T13:43:44;100417.16;;;33.01;nan
46408;BME280;32110;45.724;21.276;2022-08-04T13:46:15;100403.97;;;33.03;nan
46408;BME280;32110;45.724;21.276;2022-08-04T13:48:43;100399.66;;;33.02;nan
46408;BME280;32110;45.724;21.276;2022-08-04T13:51:10;100427.66;;;32.99;nan
46408;BME280;32110;45.724;21.276;2022-08-04T13:53:39;100408.63;;;33.03;nan
46408;BME280;32110;45.724;21.276;2022-08-04T13:56:08;100423.75;;;32.97;nan
46408;BME280;32110;45.724;21.276;2022-08-04T13:58:44;100423.75;;;32.97;nan
46408;BME280;32110;45.724;21.276;2022-08-04T14:01:22;100416.78;;;33.03;nan
46408;BME280;32110;45.724;21.276;2022-08-04T14:06:17;100393.38;;;32.95;nan
46408;BME280;32110;45.724;21.276;2022-08-04T14:08:56;100417.44;;;32.86;nan
46408;BME280;32110;45.724;21.276;2022-08-04T14:11:35;100420.88;;;32.79;nan
46408;BME280;32110;45.724;21.276;2022-08-04T14:14:15;100426.34;;;32.79;nan
46408;BME280;32110;45.724;21.276;2022-08-04T14:19:27;100403.28;;;32.73;nan
46408;BME280;32110;45.724;21.276;2022-08-04T14:21:52;100407.97;;;32.72;nan
46408;BME280;32110;45.724;21.276;2022-08-04T14:24:26;100392.00;;;32.74;nan
46408;BME280;32110;45.724;21.276;2022-08-04T14:26:52;100393.94;;;32.74;nan
46408;BME280;32110;45.724;21.276;2022-08-04T14:29:18;100394.66;;;32.67;nan
46408;BME280;32110;45.724;21.276;2022-08-04T14:31:48;100406.25;;;32.57;nan
46408;BME280;32110;45.724;21.276;2022-08-04T14:34:27;100407.53;;;32.67;nan
46408;BME280;32110;45.724;21.276;2022-08-04T14:36:54;100400.41;;;32.55;nan
46408;BME280;32110;45.724;21.276;2022-08-04T14:39:41;100404.75;;;32.63;nan
46408;BME280;32110;45.724;21.276;2022-08-04T14:42:07;100390.41;;;32.70;nan
46408;BME280;32110;45.724;21.276;2022-08-04T14:44:52;100394.75;;;32.78;nan
46408;BME280;32110;45.724;21.276;2022-08-04T14:47:37;100369.06;;;32.82;nan
46408;BME280;32110;45.724;21.276;2022-08-04T14:50:04;100379.22;;;32.82;nan
46408;BME280;32110;45.724;21.276;2022-08-04T14:52:29;100368.34;;;32.86;nan
46408;BME280;32110;45.724;21.276;2022-08-04T14:54:55;100395.22;;;32.87;nan
46408;BME280;32110;45.724;21.276;2022-08-04T14:57:20;100387.81;;;32.84;nan
46408;BME280;32110;45.724;21.276;2022-08-04T14:59:48;100383.16;;;32.88;nan
46408;BME280;32110;45.724;21.276;2022-08-04T15:02:14;100367.53;;;32.85;nan
46408;BME280;32110;45.724;21.276;2022-08-04T15:04:45;100381.56;;;32.83;nan
46408;BME280;32110;45.724;21.276;2022-08-04T15:07:29;100382.34;;;32.80;nan
46408;BME280;32110;45.724;21.276;2022-08-04T15:09:55;100372.56;;;32.79;nan
46408;BME280;32110;45.724;21.276;2022-08-04T15:12:21;100390.06;;;32.75;nan
46408;BME280;32110;45.724;21.276;2022-08-04T15:14:47;100385.44;;;32.79;nan
46408;BME280;32110;45.724;21.276;2022-08-04T15:17:12;100395.91;;;32.77;nan
46408;BME280;32110;45.724;21.276;2022-08-04T15:19:38;100383.41;;;32.72;nan
46408;BME280;32110;45.724;21.276;2022-08-04T15:22:04;100401.34;;;32.73;nan
46408;BME280;32110;45.724;21.276;2022-08-04T15:24:31;100372.50;;;32.69;nan
46408;BME280;32110;45.724;21.276;2022-08-04T15:26:58;100362.34;;;32.69;nan
46408;BME280;32110;45.724;21.276;2022-08-04T15:32:02;100391.88;;;32.60;nan
46408;BME280;32110;45.724;21.276;2022-08-04T15:35:01;100374.31;;;32.57;nan
46408;BME280;32110;45.724;21.276;2022-08-04T15:37:38;100387.53;;;32.55;nan
46408;BME280;32110;45.724;21.276;2022-08-04T15:40:13;100377.81;;;32.54;nan
46408;BME280;32110;45.724;21.276;2022-08-04T15:45:24;100416.25;;;32.46;nan
46408;BME280;32110;45.724;21.276;2022-08-04T15:50:24;100379.63;;;32.47;nan
46408;BME280;32110;45.724;21.276;2022-08-04T15:53:04;100390.53;;;32.47;nan
46408;BME280;32110;45.724;21.276;2022-08-04T15:58:00;100320.34;;;32.36;nan
46408;BME280;32110;45.724;21.276;2022-08-04T16:00:27;100372.47;;;32.31;nan
46408;BME280;32110;45.724;21.276;2022-08-04T16:02:52;100365.41;;;32.27;nan
46408;BME280;32110;45.724;21.276;2022-08-04T16:08:00;100374.28;;;32.20;nan
46408;BME280;32110;45.724;21.276;2022-08-04T16:12:55;100371.06;;;32.11;nan
46408;BME280;32110;45.724;21.276;2022-08-04T16:15:41;100375.25;;;32.01;nan
46408;BME280;32110;45.724;21.276;2022-08-04T16:18:08;100372.41;;;31.94;nan
46408;BME280;32110;45.724;21.276;2022-08-04T16:20:35;100368.81;;;31.86;nan
46408;BME280;32110;45.724;21.276;2022-08-04T16:23:21;100364.03;;;31.76;nan
46408;BME280;32110;45.724;21.276;2022-08-04T16:25:52;100421.53;;;31.71;nan
46408;BME280;32110;45.724;21.276;2022-08-04T16:28:39;100362.31;;;31.64;nan
46408;BME280;32110;45.724;21.276;2022-08-04T16:31:09;100359.25;;;31.66;nan
46408;BME280;32110;45.724;21.276;2022-08-04T16:33:36;100321.75;;;31.55;nan
46408;BME280;32110;45.724;21.276;2022-08-04T16:36:02;100325.66;;;31.54;nan
46408;BME280;32110;45.724;21.276;2022-08-04T16:38:27;100362.16;;;31.53;nan
46408;BME280;32110;45.724;21.276;2022-08-04T16:40:58;100338.84;;;31.52;nan
46408;BME280;32110;45.724;21.276;2022-08-04T16:43:28;100385.78;;;31.46;nan
46408;BME280;32110;45.724;21.276;2022-08-04T16:45:59;100358.97;;;31.44;nan
46408;BME280;32110;45.724;21.276;2022-08-04T16:48:33;100349.59;;;31.42;nan
46408;BME280;32110;45.724;21.276;2022-08-04T16:53:41;100413.66;;;31.39;nan
46408;BME280;32110;45.724;21.276;2022-08-04T16:56:11;100351.81;;;31.36;nan
46408;BME280;32110;45.724;21.276;2022-08-04T16:58:38;100321.31;;;31.23;nan
46408;BME280;32110;45.724;21.276;2022-08-04T17:01:12;100373.78;;;31.24;nan
46408;BME280;32110;45.724;21.276;2022-08-04T17:03:49;100364.78;;;31.20;nan
46408;BME280;32110;45.724;21.276;2022-08-04T17:06:15;100372.13;;;31.15;nan
46408;BME280;32110;45.724;21.276;2022-08-04T17:08:42;100361.84;;;31.05;nan
46408;BME280;32110;45.724;21.276;2022-08-04T17:11:09;100373.88;;;31.04;nan
46408;BME280;32110;45.724;21.276;2022-08-04T17:13:36;100371.47;;;30.99;nan
46408;BME280;32110;45.724;21.276;2022-08-04T17:16:04;100360.34;;;30.85;nan
46408;BME280;32110;45.724;21.276;2022-08-04T17:18:39;100364.06;;;30.77;nan
46408;BME280;32110;45.724;21.276;2022-08-04T17:21:12;100365.66;;;30.78;nan
46408;BME280;32110;45.724;21.276;2022-08-04T17:23:40;100374.94;;;30.77;nan
46408;BME280;32110;45.724;21.276;2022-08-04T17:26:26;100385.75;;;30.73;nan
46408;BME280;32110;45.724;21.276;2022-08-04T17:28:53;100332.84;;;30.67;nan
46408;BME280;32110;45.724;21.276;2022-08-04T17:31:20;100369.69;;;30.64;nan
46408;BME280;32110;45.724;21.276;2022-08-04T17:33:48;100350.09;;;30.55;nan
46408;BME280;32110;45.724;21.276;2022-08-04T17:36:15;100379.88;;;30.48;nan
46408;BME280;32110;45.724;21.276;2022-08-04T17:38:52;100370.09;;;30.43;nan
46408;BME280;32110;45.724;21.276;2022-08-04T17:41:22;100360.66;;;30.37;nan
46408;BME280;32110;45.724;21.276;2022-08-04T17:44:01;100417.50;;;30.26;nan
46408;BME280;32110;45.724;21.276;2022-08-04T17:54:14;100384.38;;;30.01;nan